Time;durP1;ratioP1;P1;durP2;ratioP2;P2;SDS_P1;SDS_P2;PMS_P1;PMS_P2;Temp;Humidity;BMP_temperature;BMP_pressure;BME280_temperature;BME280_humidity;BME280_pressure;Samples;Min_cycle;Max_cycle;Signal;HPM_P1;HPM_P2
2021/04/13 00:00:30;;;;;;;;;;;;;;;18.82;59.56;101097.03;4952140;28;1385;-54
2021/04/13 00:02:56;;;;;;;;;;;;;;;18.80;59.62;101105.25;4952598;28;1557;-54
2021/04/13 00:05:21;;;;;;;;;;;;;;;18.83;59.54;101104.13;4949142;28;1470;-54
2021/04/13 00:07:47;;;;;;;;;;;;;;;18.82;59.69;101110.44;4948808;28;1894;-55
2021/04/13 00:10:16;;;;;;;;;;;;;;;18.79;59.87;101106.19;4952373;28;1354;-57
2021/04/13 00:12:42;;;;;;;;;;;;;;;18.78;59.41;101095.56;4981679;28;1378;-57
2021/04/13 00:15:11;;;;;;;;;;;;;;;18.79;59.74;101099.97;4984985;28;1618;-55
2021/04/13 00:17:39;;;;;;;;;;;;;;;18.78;59.42;101090.22;4985197;28;1316;-57
2021/04/13 00:20:04;;;;;;;;;;;;;;;18.77;59.47;101091.19;4993170;28;1443;-54
2021/04/13 00:22:29;;;;;;;;;;;;;;;18.78;59.34;101093.75;4988934;28;1430;-57
2021/04/13 00:24:56;;;;;;;;;;;;;;;18.76;59.43;101089.47;4984816;28;1653;-57
2021/04/13 00:27:22;;;;;;;;;;;;;;;18.81;59.92;101092.69;4983246;28;1968;-57
2021/04/13 00:29:48;;;;;;;;;;;;;;;18.77;59.32;101089.38;4982727;28;1605;-54
2021/04/13 00:32:13;;;;;;;;;;;;;;;18.77;59.41;101085.84;4986168;28;1414;-54
2021/04/13 00:35:09;;;;;;;;;;;;;;;18.76;59.53;101081.44;4990603;28;1541;-54
2021/04/13 00:37:34;;;;;;;;;;;;;;;18.79;59.53;101092.81;4988803;28;1640;-57
2021/04/13 00:40:18;;;;;;;;;;;;;;;18.78;59.33;101079.50;4991328;28;1375;-54
2021/04/13 00:42:44;;;;;;;;;;;;;;;18.76;59.58;101078.78;4990965;28;1545;-54
2021/04/13 00:45:18;;;;;;;;;;;;;;;18.75;59.43;101072.56;4983996;28;1546;-54
2021/04/13 00:47:44;;;;;;;;;;;;;;;18.74;59.39;101073.56;4987829;28;1939;-54
2021/04/13 00:50:30;;;;;;;;;;;;;;;18.73;59.87;101076.34;4992545;28;1530;-57
2021/04/13 00:52:57;;;;;;;;;;;;;;;18.73;59.53;101068.31;4981201;28;1698;-57
2021/04/13 00:55:26;;;;;;;;;;;;;;;18.72;59.52;101061.25;4984838;28;1558;-54
2021/04/13 00:58:11;;;;;;;;;;;;;;;18.70;59.93;101053.34;4989194;28;1358;-55
2021/04/13 01:00:40;;;;;;;;;;;;;;;18.74;59.91;101072.69;4985549;28;1644;-54
2021/04/13 01:03:06;;;;;;;;;;;;;;;18.72;59.64;101069.28;4996407;28;1466;-57
2021/04/13 01:05:34;;;;;;;;;;;;;;;18.70;59.30;101050.66;4991187;28;1328;-57
2021/04/13 01:08:13;;;;;;;;;;;;;;;18.71;59.60;101062.25;4983677;28;1898;-57
2021/04/13 01:10:38;;;;;;;;;;;;;;;18.71;59.87;101056.88;4988282;28;1661;-57
2021/04/13 01:13:09;;;;;;;;;;;;;;;18.67;59.60;101041.03;4992489;28;1363;-57
2021/04/13 01:15:36;;;;;;;;;;;;;;;18.68;59.70;101045.44;4991703;28;1391;-55
2021/04/13 01:18:03;;;;;;;;;;;;;;;18.67;59.56;101040.22;4988702;28;1319;-54
2021/04/13 01:20:35;;;;;;;;;;;;;;;18.66;59.54;101043.84;4994090;28;1689;-54
2021/04/13 01:25:33;;;;;;;;;;;;;;;18.66;59.57;101050.06;4990332;28;1605;-54
2021/04/13 01:28:01;;;;;;;;;;;;;;;18.66;59.56;101041.16;4991008;28;1914;-57
2021/04/13 01:30:33;;;;;;;;;;;;;;;18.65;59.59;101040.31;4987106;28;1339;-57
2021/04/13 01:33:17;;;;;;;;;;;;;;;18.66;59.64;101042.03;4997048;28;1446;-57
2021/04/13 01:35:48;;;;;;;;;;;;;;;18.63;59.62;101039.59;4985704;28;1653;-54
2021/04/13 01:43:10;;;;;;;;;;;;;;;18.62;59.40;101026.31;4989297;28;1200;-54
2021/04/13 01:45:36;;;;;;;;;;;;;;;18.63;59.82;101023.53;4994252;28;1180;-54
2021/04/13 01:48:02;;;;;;;;;;;;;;;18.64;59.87;101027.94;4996796;28;1886;-57
2021/04/13 01:50:30;;;;;;;;;;;;;;;18.63;59.94;101018.16;4990881;28;1793;-57
2021/04/13 01:53:01;;;;;;;;;;;;;;;18.62;60.07;101004.91;4989608;28;1305;-57
2021/04/13 01:55:28;;;;;;;;;;;;;;;18.63;59.73;101007.47;4989009;28;1320;-54
2021/04/13 01:57:56;;;;;;;;;;;;;;;18.65;59.83;101010.84;4994229;28;1078;-54
2021/04/13 02:03:10;;;;;;;;;;;;;;;18.65;59.98;101000.16;5036719;28;1675;-47
2021/04/13 02:05:37;;;;;;;;;;;;;;;18.65;59.87;101001.97;5043698;28;1952;-47
2021/04/13 02:08:22;;;;;;;;;;;;;;;18.68;59.81;101005.25;5037199;28;1918;-47
2021/04/13 02:10:52;;;;;;;;;;;;;;;18.70;60.23;101002.44;5049021;23;3729;-55
2021/04/13 02:13:19;;;;;;;;;;;;;;;18.71;59.67;100997.94;5000843;28;1289;-55
2021/04/13 02:15:47;;;;;;;;;;;;;;;18.72;60.06;101003.19;4998322;28;1582;-57
2021/04/13 02:18:20;;;;;;;;;;;;;;;18.73;59.74;101001.34;4997733;28;1551;-53
2021/04/13 02:20:47;;;;;;;;;;;;;;;18.74;60.12;100986.97;5005364;28;1515;-55
2021/04/13 02:23:13;;;;;;;;;;;;;;;18.73;60.53;100987.97;5004273;28;1692;-54
2021/04/13 02:25:40;;;;;;;;;;;;;;;18.72;60.17;100984.44;4994972;28;1369;-56
2021/04/13 02:28:06;;;;;;;;;;;;;;;18.73;59.99;100986.13;5002778;28;1974;-57
2021/04/13 02:30:34;;;;;;;;;;;;;;;18.77;60.03;100976.00;4998634;28;1436;-54
2021/04/13 02:33:05;;;;;;;;;;;;;;;18.72;60.13;100978.19;4995863;28;1363;-57
2021/04/13 02:35:31;;;;;;;;;;;;;;;18.82;59.77;100974.66;4998162;28;1178;-60
2021/04/13 02:38:00;;;;;;;;;;;;;;;19.42;58.70;100969.53;5003546;28;1645;-57
2021/04/13 02:40:28;;;;;;;;;;;;;;;20.05;57.42;100976.59;4996630;28;1546;-54
2021/04/13 02:42:56;;;;;;;;;;;;;;;20.26;56.60;100973.81;4993194;28;1409;-57
2021/04/13 02:45:31;;;;;;;;;;;;;;;20.31;56.50;100978.75;4993466;28;1468;-54
2021/04/13 02:48:19;;;;;;;;;;;;;;;20.51;55.53;100988.53;5002327;28;1882;-53
2021/04/13 02:50:46;;;;;;;;;;;;;;;20.42;55.42;100975.97;4994862;28;1960;-53
2021/04/13 02:53:15;;;;;;;;;;;;;;;20.59;55.55;100983.38;5000359;28;1388;-58
2021/04/13 02:55:47;;;;;;;;;;;;;;;20.73;55.97;100987.47;5006222;28;1531;-53
2021/04/13 02:58:12;;;;;;;;;;;;;;;20.51;55.92;100975.09;4995138;28;1153;-54
2021/04/13 03:00:42;;;;;;;;;;;;;;;20.72;55.04;100968.78;4998240;28;1566;-54
2021/04/13 03:03:10;;;;;;;;;;;;;;;20.71;55.50;100970.66;4993006;28;1193;-54
2021/04/13 03:05:37;;;;;;;;;;;;;;;20.56;55.13;100982.75;4999263;28;1332;-54
2021/04/13 03:08:14;;;;;;;;;;;;;;;20.75;55.39;100990.88;5005637;28;1898;-57
2021/04/13 03:10:47;;;;;;;;;;;;;;;20.70;55.96;100979.69;5002774;28;1585;-57
2021/04/13 03:13:17;;;;;;;;;;;;;;;20.73;55.77;100995.53;4996389;28;1483;-57
2021/04/13 03:15:48;;;;;;;;;;;;;;;20.73;56.37;101010.78;4990026;28;1559;-57
2021/04/13 03:18:16;;;;;;;;;;;;;;;20.66;55.96;100983.63;5003545;28;1225;-57
2021/04/13 03:20:45;;;;;;;;;;;;;;;20.75;55.79;100992.69;4998094;28;1438;-54
2021/04/13 03:23:11;;;;;;;;;;;;;;;20.90;56.00;100993.97;5001525;28;1704;-54
2021/04/13 03:25:41;;;;;;;;;;;;;;;20.79;56.16;101000.34;4996321;28;1459;-57
2021/04/13 03:28:08;;;;;;;;;;;;;;;20.82;56.33;100993.81;5003139;28;1914;-57
2021/04/13 03:30:36;;;;;;;;;;;;;;;20.83;55.76;101000.88;5002559;28;1471;-53
2021/04/13 03:33:02;;;;;;;;;;;;;;;20.81;56.46;100990.28;4993247;28;1446;-54
2021/04/13 03:35:28;;;;;;;;;;;;;;;20.81;56.43;100992.13;4998477;28;1501;-54
2021/04/13 03:37:55;;;;;;;;;;;;;;;20.99;55.18;100990.44;5002587;28;1432;-54
2021/04/13 03:40:22;;;;;;;;;;;;;;;20.88;55.71;100993.25;5001508;28;1398;-54
2021/04/13 03:42:50;;;;;;;;;;;;;;;20.85;55.80;100991.72;5002390;28;1391;-57
2021/04/13 03:45:16;;;;;;;;;;;;;;;20.73;56.39;100983.91;5004423;28;1347;-57
2021/04/13 03:47:43;;;;;;;;;;;;;;;21.00;55.41;100975.97;4989106;28;1882;-57
2021/04/13 03:50:14;;;;;;;;;;;;;;;20.99;55.73;100987.75;4997820;28;1466;-57
2021/04/13 03:52:39;;;;;;;;;;;;;;;20.85;56.26;100990.88;4998342;28;1241;-57
2021/04/13 03:55:21;;;;;;;;;;;;;;;20.82;56.08;100993.81;5002402;28;1553;-54
2021/04/13 03:57:47;;;;;;;;;;;;;;;20.45;56.69;101008.78;5007497;28;765;-54
2021/04/13 04:00:15;;;;;;;;;;;;;;;20.03;57.24;100998.22;5003239;28;1469;-57
2021/04/13 04:02:41;;;;;;;;;;;;;;;19.85;57.84;100984.56;5002360;28;1389;-57
2021/04/13 04:05:15;;;;;;;;;;;;;;;19.68;57.99;100980.69;5002096;28;1541;-57
2021/04/13 04:10:33;;;;;;;;;;;;;;;19.53;58.14;100983.84;4996325;28;1347;-57
2021/04/13 04:13:04;;;;;;;;;;;;;;;19.46;58.40;100979.03;5001335;28;1408;-57
2021/04/13 04:15:36;;;;;;;;;;;;;;;19.46;59.04;100987.06;5003450;28;1486;-57
2021/04/13 04:18:01;;;;;;;;;;;;;;;19.39;58.61;100988.56;5003522;28;1044;-57
2021/04/13 04:20:32;;;;;;;;;;;;;;;19.37;58.42;100979.81;4997914;28;1447;-57
2021/04/13 04:22:58;;;;;;;;;;;;;;;19.38;58.83;100984.22;5001900;28;1470;-54
2021/04/13 04:25:39;;;;;;;;;;;;;;;19.33;58.71;100986.44;5001511;28;1655;-57
2021/04/13 04:28:13;;;;;;;;;;;;;;;19.30;58.77;100991.19;5002208;28;1979;-55
2021/04/13 04:30:38;;;;;;;;;;;;;;;19.25;58.83;100994.28;5001977;28;1495;-57
2021/04/13 04:33:04;;;;;;;;;;;;;;;19.23;59.00;100989.03;5007154;28;758;-57
2021/04/13 04:35:32;;;;;;;;;;;;;;;19.22;58.67;100986.53;5004442;28;1727;-57
2021/04/13 04:38:01;;;;;;;;;;;;;;;19.21;59.17;100990.16;5005778;28;1600;-57
2021/04/13 04:40:26;;;;;;;;;;;;;;;19.33;58.95;100982.91;5005299;28;1589;-55
2021/04/13 04:43:00;;;;;;;;;;;;;;;19.32;59.09;100998.16;5006031;28;1436;-55
2021/04/13 04:45:38;;;;;;;;;;;;;;;19.38;58.59;100986.88;5005612;28;1418;-55
2021/04/13 04:48:24;;;;;;;;;;;;;;;19.47;58.45;100987.91;5010368;28;1951;-55
2021/04/13 04:50:50;;;;;;;;;;;;;;;19.73;57.48;100993.72;5003559;28;1696;-55
2021/04/13 04:53:17;;;;;;;;;;;;;;;20.21;56.46;100998.41;5003525;28;1398;-56
2021/04/13 04:55:42;;;;;;;;;;;;;;;21.03;54.43;101002.59;5005140;28;1396;-56
2021/04/13 04:58:08;;;;;;;;;;;;;;;21.98;51.34;101008.00;5013692;28;738;-55
2021/04/13 05:00:33;;;;;;;;;;;;;;;22.57;50.17;101003.97;5004321;28;1707;-56
2021/04/13 05:02:58;;;;;;;;;;;;;;;22.89;49.25;101005.28;5005169;28;1609;-55
2021/04/13 05:05:24;;;;;;;;;;;;;;;23.17;48.21;100994.41;5004765;28;1467;-56
2021/04/13 05:07:49;;;;;;;;;;;;;;;22.98;47.30;100993.56;5007314;28;1902;-56
2021/04/13 05:10:15;;;;;;;;;;;;;;;23.12;47.82;100996.72;5003402;28;1589;-56
2021/04/13 05:12:40;;;;;;;;;;;;;;;22.96;48.42;100987.47;5003337;28;1651;-56
2021/04/13 05:15:06;;;;;;;;;;;;;;;22.02;50.23;100998.63;5004684;28;1621;-56
2021/04/13 05:17:31;;;;;;;;;;;;;;;21.56;50.76;100992.31;5001097;28;1336;-56
2021/04/13 05:19:56;;;;;;;;;;;;;;;21.05;52.27;101008.66;5002066;28;1440;-55
2021/04/13 05:22:22;;;;;;;;;;;;;;;20.65;53.91;101009.66;5004349;28;1565;-55
2021/04/13 05:24:47;;;;;;;;;;;;;;;20.63;54.93;101000.91;4999140;28;1470;-55
2021/04/13 05:27:13;;;;;;;;;;;;;;;20.79;54.53;101015.59;4996591;28;1968;-55
2021/04/13 05:29:38;;;;;;;;;;;;;;;20.74;54.41;101004.44;4999607;28;1652;-56
2021/04/13 05:32:04;;;;;;;;;;;;;;;20.69;54.70;101002.19;5002293;28;1037;-57
2021/04/13 05:34:29;;;;;;;;;;;;;;;20.66;55.44;101005.97;4995546;28;1493;-55
2021/04/13 05:36:55;;;;;;;;;;;;;;;20.58;55.56;101005.81;5000019;28;1487;-57
2021/04/13 05:39:21;;;;;;;;;;;;;;;20.44;56.06;101000.84;5002549;28;1342;-57
2021/04/13 05:41:47;;;;;;;;;;;;;;;20.50;55.64;100994.91;5004627;28;1189;-55
2021/04/13 05:44:13;;;;;;;;;;;;;;;20.34;56.43;100989.25;4998200;28;1138;-55
2021/04/13 05:46:38;;;;;;;;;;;;;;;20.33;56.37;101000.97;4993375;28;1030;-55
2021/04/13 05:49:03;;;;;;;;;;;;;;;20.37;55.83;100999.69;4992307;28;1955;-57
2021/04/13 05:51:29;;;;;;;;;;;;;;;20.40;56.21;100996.75;4995259;28;1907;-58
2021/04/13 05:53:55;;;;;;;;;;;;;;;20.42;56.03;100992.09;5003015;28;1372;-65
2021/04/13 05:56:24;;;;;;;;;;;;;;;20.42;55.99;100994.75;4984128;28;1727;-58
2021/04/13 05:58:50;;;;;;;;;;;;;;;20.47;55.61;100992.50;4982847;28;1340;-57
2021/04/13 06:01:16;;;;;;;;;;;;;;;20.44;56.47;100990.94;4991609;28;1442;-57
2021/04/13 06:03:45;;;;;;;;;;;;;;;20.51;55.48;100993.91;4993290;28;1253;-57
2021/04/13 06:06:11;;;;;;;;;;;;;;;20.55;56.27;100997.16;4988307;28;1320;-55
2021/04/13 06:08:36;;;;;;;;;;;;;;;20.55;55.94;100998.03;4990807;28;1917;-55
2021/04/13 06:11:02;;;;;;;;;;;;;;;20.45;56.43;100979.22;4994688;28;1427;-55
2021/04/13 06:13:28;;;;;;;;;;;;;;;20.31;57.77;100994.88;4997708;28;1190;-55
2021/04/13 06:15:54;;;;;;;;;;;;;;;20.22;58.23;101002.78;4995354;28;1205;-55
2021/04/13 06:18:21;;;;;;;;;;;;;;;20.32;57.68;100996.59;4990165;28;1263;-56
2021/04/13 06:20:47;;;;;;;;;;;;;;;20.37;58.08;100989.81;4993171;28;1606;-55
2021/04/13 06:23:12;;;;;;;;;;;;;;;20.37;57.99;100995.19;4997135;28;1244;-56
2021/04/13 06:25:38;;;;;;;;;;;;;;;20.33;57.96;100992.91;4996587;28;1420;-56
2021/04/13 06:28:03;;;;;;;;;;;;;;;20.37;57.99;100987.13;4998276;28;1906;-61
2021/04/13 06:30:29;;;;;;;;;;;;;;;20.30;59.75;100987.81;4995791;28;1387;-63
2021/04/13 06:32:57;;;;;;;;;;;;;;;20.29;58.66;100986.94;4992829;28;1508;-56
2021/04/13 06:35:22;;;;;;;;;;;;;;;20.28;58.13;100987.97;4997890;28;1674;-56
2021/04/13 06:37:49;;;;;;;;;;;;;;;20.32;58.31;100997.44;4997290;28;1620;-54
2021/04/13 06:40:37;;;;;;;;;;;;;;;20.32;58.25;100991.22;4992501;28;1430;-56
2021/04/13 06:43:15;;;;;;;;;;;;;;;20.25;58.50;100985.53;4994694;28;1416;-59
2021/04/13 06:45:43;;;;;;;;;;;;;;;20.12;59.10;100982.28;4995422;28;1470;-55
2021/04/13 06:48:11;;;;;;;;;;;;;;;20.13;59.34;100982.13;5005563;28;1890;-56
2021/04/13 06:50:47;;;;;;;;;;;;;;;20.10;58.37;100992.31;4995974;28;1723;-58
2021/04/13 06:53:17;;;;;;;;;;;;;;;20.03;58.99;100989.28;4993197;28;1447;-57
2021/04/13 06:56:01;;;;;;;;;;;;;;;19.96;58.43;100982.78;4992134;28;1236;-57
2021/04/13 06:58:32;;;;;;;;;;;;;;;19.89;58.67;100979.78;4990681;28;1237;-55
2021/04/13 07:01:09;;;;;;;;;;;;;;;19.84;58.22;100984.72;5001154;28;1408;-55
2021/04/13 07:03:38;;;;;;;;;;;;;;;19.76;58.17;100976.50;5006780;28;1622;-58
2021/04/13 07:06:03;;;;;;;;;;;;;;;19.73;58.69;100980.28;4995989;28;1438;-55
2021/04/13 07:08:33;;;;;;;;;;;;;;;19.68;59.09;100977.16;4994320;28;1930;-58
2021/04/13 07:11:02;;;;;;;;;;;;;;;19.71;59.67;100979.59;4994881;28;1359;-61
2021/04/13 07:13:42;;;;;;;;;;;;;;;19.78;58.91;100978.06;4995260;28;1371;-62
2021/04/13 07:16:24;;;;;;;;;;;;;;;19.76;59.22;100974.66;4993832;28;1156;-57
2021/04/13 07:19:09;;;;;;;;;;;;;;;19.77;59.29;100972.81;4992198;28;1371;-61
2021/04/13 07:21:41;;;;;;;;;;;;;;;19.75;59.57;100967.59;5001437;28;1382;-54
2021/04/13 07:24:06;;;;;;;;;;;;;;;19.75;59.92;100966.75;4985606;28;1547;-54
2021/04/13 07:26:35;;;;;;;;;;;;;;;19.74;59.80;100965.91;4984715;28;1550;-56
2021/04/13 07:29:11;;;;;;;;;;;;;;;19.74;59.71;100955.19;4984143;28;11072;-53
2021/04/13 07:31:42;;;;;;;;;;;;;;;19.67;60.07;100959.34;4987468;28;1623;-52
2021/04/13 07:34:08;;;;;;;;;;;;;;;19.74;60.71;100970.44;4996651;28;1479;-52
2021/04/13 07:36:48;;;;;;;;;;;;;;;19.76;60.88;100958.56;4995063;28;1519;-58
2021/04/13 07:39:13;;;;;;;;;;;;;;;19.70;60.61;100961.75;5003234;28;1351;-50
2021/04/13 07:41:42;;;;;;;;;;;;;;;19.69;60.98;100952.00;4991611;28;1437;-58
2021/04/13 07:44:12;;;;;;;;;;;;;;;19.74;60.36;100963.22;5000893;28;1189;-58
2021/04/13 07:46:46;;;;;;;;;;;;;;;19.69;60.77;100957.38;4991124;28;1507;-52
2021/04/13 07:49:19;;;;;;;;;;;;;;;19.63;60.47;100957.91;4988248;28;1902;-58
2021/04/13 07:51:44;;;;;;;;;;;;;;;19.60;60.93;100952.84;4993826;28;1383;-53
2021/04/13 07:55:19;;;;;;;;;;;;;;;19.67;60.37;100946.75;5041125;27;10477;-47
2021/04/13 07:57:50;;;;;;;;;;;;;;;19.80;59.82;100943.06;5058647;28;1534;-46
2021/04/13 08:00:18;;;;;;;;;;;;;;;19.62;59.34;100940.13;5058752;28;1687;-46
2021/04/13 08:02:47;;;;;;;;;;;;;;;19.56;59.30;100943.38;5057247;28;1474;-47
2021/04/13 08:05:13;;;;;;;;;;;;;;;19.55;59.43;100938.97;5059604;28;1381;-47
2021/04/13 08:07:41;;;;;;;;;;;;;;;19.57;60.25;100942.38;5056049;28;1966;-46
2021/04/13 08:10:14;;;;;;;;;;;;;;;19.56;60.48;100946.03;5062045;28;1456;-46
2021/04/13 08:12:52;;;;;;;;;;;;;;;19.56;60.49;100951.41;5043954;28;2004;-45
2021/04/13 08:15:19;;;;;;;;;;;;;;;19.53;60.23;100943.63;5043288;28;1395;-46
2021/04/13 08:18:00;;;;;;;;;;;;;;;19.54;60.28;100948.84;5044270;28;1414;-50
2021/04/13 08:20:27;;;;;;;;;;;;;;;19.53;60.62;100935.56;5043714;28;1564;-46
2021/04/13 08:22:55;;;;;;;;;;;;;;;19.48;60.46;100934.16;5042505;28;1502;-46
2021/04/13 08:25:32;;;;;;;;;;;;;;;19.46;60.60;100927.22;5044906;28;1916;-47
2021/04/13 08:28:02;;;;;;;;;;;;;;;19.45;60.71;100934.41;5039469;28;1374;-46
2021/04/13 08:30:34;;;;;;;;;;;;;;;19.49;60.52;100926.94;5042884;28;1564;-46
2021/04/13 08:33:06;;;;;;;;;;;;;;;19.51;60.52;100929.50;5045295;28;1973;-47
2021/04/13 08:35:35;;;;;;;;;;;;;;;19.51;60.37;100921.44;5044041;28;1488;-47
2021/04/13 08:38:16;;;;;;;;;;;;;;;19.55;60.12;100923.72;5044862;28;1783;-46
2021/04/13 08:40:54;;;;;;;;;;;;;;;19.58;59.82;100903.84;5044206;28;1833;-46
2021/04/13 08:43:23;;;;;;;;;;;;;;;19.60;59.36;100910.75;5043764;28;1512;-46
2021/04/13 08:46:05;;;;;;;;;;;;;;;19.66;59.43;100910.22;5044957;28;1664;-46
2021/04/13 08:48:37;;;;;;;;;;;;;;;19.63;59.29;100899.72;5042787;28;2054;-46
2021/04/13 08:51:07;;;;;;;;;;;;;;;19.68;59.76;100897.50;5044812;28;2026;-46
2021/04/13 08:53:39;;;;;;;;;;;;;;;19.66;58.98;100893.28;5044157;28;2044;-46
2021/04/13 08:56:06;;;;;;;;;;;;;;;19.63;58.93;100889.00;5044763;28;1451;-46
2021/04/13 08:58:42;;;;;;;;;;;;;;;19.63;58.67;100882.78;5045092;28;1429;-47
2021/04/13 09:01:26;;;;;;;;;;;;;;;19.63;58.08;100890.84;5045859;28;1296;-47
2021/04/13 09:03:52;;;;;;;;;;;;;;;19.61;57.89;100892.81;5044263;28;2004;-47
2021/04/13 09:06:23;;;;;;;;;;;;;;;19.61;57.98;100884.78;5033719;28;1478;-47
2021/04/13 09:08:52;;;;;;;;;;;;;;;19.62;57.76;100897.22;5030528;28;1740;-47
2021/04/13 09:11:22;;;;;;;;;;;;;;;19.63;57.40;100882.78;5030565;28;1544;-47
2021/04/13 09:13:58;;;;;;;;;;;;;;;19.61;56.97;100882.09;5025703;28;1909;-47
2021/04/13 09:16:25;;;;;;;;;;;;;;;19.66;56.35;100887.91;5030128;28;1817;-46
2021/04/13 09:18:54;;;;;;;;;;;;;;;19.64;56.14;100885.34;5029444;28;1375;-44
2021/04/13 09:21:39;;;;;;;;;;;;;;;19.66;55.84;100879.84;5025723;28;1441;-47
2021/04/13 09:24:09;;;;;;;;;;;;;;;19.71;55.19;100884.81;5028566;28;1434;-47
2021/04/13 09:26:41;;;;;;;;;;;;;;;19.70;55.49;100875.06;5028874;28;1772;-47
2021/04/13 09:29:12;;;;;;;;;;;;;;;19.75;54.53;100871.00;5027621;28;1434;-48
2021/04/13 09:31:44;;;;;;;;;;;;;;;19.83;53.84;100873.00;5028206;28;1718;-46
2021/04/13 09:34:15;;;;;;;;;;;;;;;19.86;54.50;100873.56;5030370;28;1898;-48
2021/04/13 09:36:55;;;;;;;;;;;;;;;19.89;54.38;100860.84;5030967;28;1414;-47
2021/04/13 09:39:33;;;;;;;;;;;;;;;19.86;54.63;100862.00;5031298;28;1596;-46
2021/04/13 09:42:04;;;;;;;;;;;;;;;19.77;54.44;100854.75;5028573;28;1950;-47
2021/04/13 09:44:50;;;;;;;;;;;;;;;19.80;55.48;100860.72;5029271;28;1441;-45
2021/04/13 09:47:23;;;;;;;;;;;;;;;19.81;56.17;100853.50;5028843;28;1552;-45
2021/04/13 09:49:56;;;;;;;;;;;;;;;19.79;56.42;100850.94;5031610;28;1626;-46
2021/04/13 09:52:51;;;;;;;;;;;;;;;19.84;57.41;100854.06;5031636;28;1756;-46
2021/04/13 09:55:30;;;;;;;;;;;;;;;19.76;57.40;100848.56;5027095;28;1906;-46
2021/04/13 09:58:09;;;;;;;;;;;;;;;19.72;57.97;100849.81;5031109;28;1247;-46
2021/04/13 10:00:58;;;;;;;;;;;;;;;19.90;57.85;100851.84;5030887;28;1628;-46
2021/04/13 10:03:55;;;;;;;;;;;;;;;19.86;57.94;100838.69;5014504;28;1766;-46
2021/04/13 10:06:25;;;;;;;;;;;;;;;19.82;58.46;100844.47;5030370;28;1943;-46
2021/04/13 10:09:04;;;;;;;;;;;;;;;19.75;58.32;100838.78;5030677;28;1807;-45
2021/04/13 10:11:43;;;;;;;;;;;;;;;19.70;59.06;100843.72;5030348;28;1700;-46
2021/04/13 10:14:22;;;;;;;;;;;;;;;19.71;59.25;100844.56;5030873;28;1906;-46
2021/04/13 10:17:03;;;;;;;;;;;;;;;19.83;59.14;100830.91;5028908;28;1736;-46
2021/04/13 10:22:53;;;;;;;;;;;;;;;19.48;55.42;100826.84;5031275;28;1830;-46
2021/04/13 10:25:43;;;;;;;;;;;;;;;19.74;56.70;100821.03;5031452;28;1707;-46
2021/04/13 10:28:36;;;;;;;;;;;;;;;19.82;57.51;100818.47;5031675;28;1443;-47
2021/04/13 10:31:20;;;;;;;;;;;;;;;19.89;57.98;100812.56;5025289;28;1890;-46
2021/04/13 10:34:10;;;;;;;;;;;;;;;19.88;57.82;100816.25;5029907;28;1971;-46
2021/04/13 10:36:56;;;;;;;;;;;;;;;19.81;57.94;100814.09;5029687;28;1447;-47
2021/04/13 10:39:39;;;;;;;;;;;;;;;19.81;58.35;100827.50;5028561;28;1501;-45
2021/04/13 10:42:23;;;;;;;;;;;;;;;19.74;58.55;100821.03;5026652;28;1521;-46
2021/04/13 10:45:14;;;;;;;;;;;;;;;19.78;58.30;100819.75;5024145;28;1546;-47
2021/04/13 10:48:01;;;;;;;;;;;;;;;19.81;58.76;100799.84;5028178;28;1410;-45
2021/04/13 10:50:50;;;;;;;;;;;;;;;19.83;58.76;100793.31;5028576;28;1405;-45
2021/04/13 10:53:20;;;;;;;;;;;;;;;19.73;58.16;100789.78;5027034;28;3149;-45
2021/04/13 10:56:03;;;;;;;;;;;;;;;19.70;58.59;100783.84;5032059;28;2056;-46
2021/04/13 10:58:51;;;;;;;;;;;;;;;19.64;58.78;100782.56;5027086;28;1630;-45
2021/04/13 11:01:32;;;;;;;;;;;;;;;19.61;59.07;100788.19;5026687;28;1559;-45
2021/04/13 11:04:13;;;;;;;;;;;;;;;19.61;59.06;100780.16;5020626;28;1882;-45
2021/04/13 11:06:51;;;;;;;;;;;;;;;19.60;59.24;100775.78;5029334;28;1486;-46
2021/04/13 11:09:35;;;;;;;;;;;;;;;19.57;59.34;100781.41;5029532;28;1471;-46
2021/04/13 11:12:16;;;;;;;;;;;;;;;19.51;59.47;100760.50;5028134;28;1536;-45
2021/04/13 11:14:56;;;;;;;;;;;;;;;19.47;59.45;100776.88;5028338;28;1983;-46
2021/04/13 11:17:37;;;;;;;;;;;;;;;19.47;59.26;100771.50;5028508;28;1458;-45
2021/04/13 11:20:15;;;;;;;;;;;;;;;19.45;59.82;100762.75;5023310;28;1398;-45
2021/04/13 11:22:59;;;;;;;;;;;;;;;19.43;59.56;100767.41;5024775;28;1407;-45
2021/04/13 11:25:42;;;;;;;;;;;;;;;19.42;59.29;100763.06;5025093;28;1415;-46
2021/04/13 11:28:35;;;;;;;;;;;;;;;19.42;59.44;100763.06;5025432;28;1581;-46
2021/04/13 11:31:25;;;;;;;;;;;;;;;19.42;59.46;100763.06;5024292;28;1435;-46
2021/04/13 11:34:03;;;;;;;;;;;;;;;19.44;59.84;100752.19;4969470;28;1991;-45
2021/04/13 11:36:37;;;;;;;;;;;;;;;19.45;59.78;100741.31;5027628;28;1629;-46
2021/04/13 11:39:15;;;;;;;;;;;;;;;19.45;59.69;100749.34;5027850;28;1629;-46
2021/04/13 11:42:02;;;;;;;;;;;;;;;19.45;59.78;100746.66;5029308;28;1645;-45
2021/04/13 11:44:40;;;;;;;;;;;;;;;19.47;59.79;100741.16;5030301;28;1509;-45
2021/04/13 11:49:56;;;;;;;;;;;;;;;19.53;60.08;100721.00;5030650;28;2496;-45
2021/04/13 11:52:29;;;;;;;;;;;;;;;19.51;59.51;100731.00;5025573;28;1415;-45
2021/04/13 11:54:59;;;;;;;;;;;;;;;19.56;59.70;100726.09;5030034;28;1887;-45
2021/04/13 11:57:30;;;;;;;;;;;;;;;19.54;59.54;100717.34;5029347;28;1466;-45
2021/04/13 12:00:27;;;;;;;;;;;;;;;19.54;59.73;100715.50;5027562;28;1586;-45
2021/04/13 12:03:12;;;;;;;;;;;;;;;19.54;59.81;100715.50;5027684;28;1589;-45
2021/04/13 12:05:49;;;;;;;;;;;;;;;19.52;59.91;100708.56;5022928;28;1080;-46
2021/04/13 12:08:38;;;;;;;;;;;;;;;19.50;60.44;100710.53;5030060;28;1390;-46
2021/04/13 12:11:10;;;;;;;;;;;;;;;19.47;60.24;100703.63;5025822;28;1578;-45
2021/04/13 12:13:40;;;;;;;;;;;;;;;19.43;60.11;100700.38;5029659;28;1998;-45
2021/04/13 12:16:10;;;;;;;;;;;;;;;19.44;59.86;100701.25;5030500;28;1505;-45
2021/04/13 12:19:06;;;;;;;;;;;;;;;19.41;59.87;100686.25;5030561;28;1560;-45
2021/04/13 12:24:54;;;;;;;;;;;;;;;19.41;60.60;100686.25;5030290;28;2703;-45
2021/04/13 12:27:43;;;;;;;;;;;;;;;19.39;60.24;100688.22;5031005;28;1510;-45
2021/04/13 12:30:39;;;;;;;;;;;;;;;19.39;60.15;100684.72;5028195;28;1988;-45
2021/04/13 12:33:29;;;;;;;;;;;;;;;19.39;60.48;100674.81;5011380;28;1159;-46
2021/04/13 12:36:05;;;;;;;;;;;;;;;19.37;60.26;100668.75;5029607;28;1404;-46
2021/04/13 12:41:50;;;;;;;;;;;;;;;19.38;60.08;100662.41;5029221;28;2725;-45
2021/04/13 12:44:22;;;;;;;;;;;;;;;19.36;60.29;100664.38;5021605;28;2014;-45
2021/04/13 12:49:32;;;;;;;;;;;;;;;19.35;60.44;100660.00;5028568;28;2464;-45
2021/04/13 12:52:01;;;;;;;;;;;;;;;19.32;60.47;100660.28;5031662;28;1486;-46
2021/04/13 12:54:29;;;;;;;;;;;;;;;19.33;60.90;100650.41;5031879;28;1980;-45
2021/04/13 12:56:57;;;;;;;;;;;;;;;19.33;60.55;100653.94;5032411;28;1827;-45
2021/04/13 12:59:25;;;;;;;;;;;;;;;19.32;60.59;100662.97;5031211;28;1340;-45
2021/04/13 13:01:52;;;;;;;;;;;;;;;19.32;60.53;100638.84;5032605;28;1066;-45
2021/04/13 13:04:20;;;;;;;;;;;;;;;19.31;60.55;100645.19;5031503;28;1791;-45
2021/04/13 13:06:47;;;;;;;;;;;;;;;19.30;60.18;100646.19;5032691;28;2120;-45
2021/04/13 13:09:20;;;;;;;;;;;;;;;19.31;60.72;100620.22;5031126;28;1623;-45
2021/04/13 13:11:46;;;;;;;;;;;;;;;19.30;60.63;100621.19;5031582;28;1739;-45
2021/04/13 13:14:14;;;;;;;;;;;;;;;19.31;60.76;100630.94;5026364;28;1922;-45
2021/04/13 13:16:40;;;;;;;;;;;;;;;19.31;60.61;100636.31;5030481;28;1772;-45
2021/04/13 13:19:06;;;;;;;;;;;;;;;19.30;60.60;100619.38;5031078;28;1772;-45
2021/04/13 13:21:48;;;;;;;;;;;;;;;19.30;60.66;100622.06;5030916;28;1389;-46
2021/04/13 13:24:16;;;;;;;;;;;;;;;19.29;60.70;100617.66;5027381;28;1719;-45
2021/04/13 13:26:43;;;;;;;;;;;;;;;19.25;60.73;100606.38;5031244;28;1962;-45
2021/04/13 13:29:09;;;;;;;;;;;;;;;19.28;60.76;100621.34;5032272;28;1190;-45
2021/04/13 13:31:37;;;;;;;;;;;;;;;19.27;60.77;100617.81;5027372;28;1628;-46
2021/04/13 13:34:05;;;;;;;;;;;;;;;19.26;60.68;100613.44;5039277;28;1898;-45
2021/04/13 13:36:32;;;;;;;;;;;;;;;19.26;60.87;100602.72;5029882;28;1450;-45
2021/04/13 13:38:59;;;;;;;;;;;;;;;19.28;60.35;100603.44;5030851;28;1482;-45
2021/04/13 13:41:26;;;;;;;;;;;;;;;19.28;60.05;100590.03;5031519;28;1031;-46